Fairfield, Illinois
Current Conditions -  °F | °C
As of 6:15 AM on Friday 28 Nov 2014 (Local Time) from KFWC Reporting Station
Clear Clear  
Wind Chill: 24°   Ceiling: Unl
Heat Index: 24°   Visibility: 10mi
Dew Point: 21°   Wind: 0mph
Humidity: 87%   Direction: NA
Pressure: 30.38"   Gusts: NA
Location:  38.38°N, 88.36°W
Report Text: KFWC 281215Z AUTO 00000KT 10SM CLR M04/M06 A3038 RMK AO1 T10421060
Loading
Personal Weather Stations






























Interactive Weather Map New forecast layout! Learn more

10-Day Weather Forecast

Advertisements
Track Severe Weather on mobile